Time;durP1;ratioP1;P1;durP2;ratioP2;P2;SDS_P1;SDS_P2;PMS_P1;PMS_P2;Temp;Humidity;BMP_temperature;BMP_pressure;BME280_temperature;BME280_humidity;BME280_pressure;Samples;Min_cycle;Max_cycle;Signal;HPM_P1;HPM_P2
2022/03/09 00:01:35;;;;;;;3.93;2.70;;;;;;;-2.84;100.00;101873.00;4995420;28;20462;-82
2022/03/09 00:04:05;;;;;;;3.60;2.63;;;;;;;-2.80;100.00;101879.19;5003910;28;20050;-81
2022/03/09 00:06:34;;;;;;;4.87;2.67;;;;;;;-2.93;100.00;101874.19;5034403;28;20427;-81
2022/03/09 00:09:00;;;;;;;4.20;2.53;;;;;;;-2.95;100.00;101878.38;5005635;28;20044;-81
2022/03/09 00:11:27;;;;;;;5.23;2.30;;;;;;;-2.91;100.00;101885.50;4997346;28;20090;-81
2022/03/09 00:13:54;;;;;;;3.27;1.87;;;;;;;-3.02;100.00;101889.22;5037917;28;20045;-81
2022/03/09 00:16:23;;;;;;;5.90;2.70;;;;;;;-3.12;100.00;101883.53;5017793;28;20496;-82
2022/03/09 00:18:50;;;;;;;4.27;2.40;;;;;;;-3.03;100.00;101890.00;5025205;28;20045;-80
2022/03/09 00:21:16;;;;;;;4.00;2.50;;;;;;;-2.92;100.00;101886.31;5007890;28;20045;-82
2022/03/09 00:23:45;;;;;;;4.23;2.10;;;;;;;-3.09;100.00;101881.94;5016344;28;20045;-81
2022/03/09 00:26:12;;;;;;;3.40;2.10;;;;;;;-3.10;100.00;101886.22;5007712;28;20045;-81
2022/03/09 00:28:39;;;;;;;3.93;2.20;;;;;;;-3.19;100.00;101896.06;5011477;28;20045;-82
2022/03/09 00:31:05;;;;;;;5.90;2.43;;;;;;;-3.24;100.00;101887.16;5008687;28;20086;-80
2022/03/09 00:33:33;;;;;;;4.07;2.30;;;;;;;-3.25;100.00;101893.13;5019309;28;20073;-80
2022/03/09 00:36:00;;;;;;;3.07;2.20;;;;;;;-3.27;100.00;101882.72;5002581;28;20661;-82
2022/03/09 00:38:28;;;;;;;4.27;2.30;;;;;;;-3.25;100.00;101875.03;5016500;28;20409;-80
2022/03/09 00:40:54;;;;;;;4.30;2.27;;;;;;;-3.18;100.00;101884.91;5031775;28;20045;-79
2022/03/09 00:43:21;;;;;;;4.63;2.10;;;;;;;-3.19;100.00;101891.78;4977390;28;1025740;-82
2022/03/09 00:45:48;;;;;;;3.83;2.30;;;;;;;-3.29;100.00;101880.84;5025220;28;20034;-82
2022/03/09 00:48:15;;;;;;;3.70;2.40;;;;;;;-3.28;100.00;101882.59;5022432;28;20068;-80
2022/03/09 00:50:42;;;;;;;3.50;2.20;;;;;;;-3.23;100.00;101882.06;5018183;28;20049;-82
2022/03/09 00:53:08;;;;;;;5.77;2.63;;;;;;;-3.15;100.00;101872.16;5034078;28;20099;-79
2022/03/09 00:55:37;;;;;;;5.00;2.43;;;;;;;-3.09;100.00;101874.19;5015571;28;20025;-81
2022/03/09 00:58:05;;;;;;;4.40;2.40;;;;;;;-3.16;100.00;101871.25;5019571;28;20037;-82
2022/03/09 01:00:32;;;;;;;3.23;1.80;;;;;;;-3.27;100.00;101874.97;5043999;28;20033;-82
2022/03/09 01:02:59;;;;;;;3.83;1.90;;;;;;;-3.38;100.00;101872.59;5029479;28;20061;-80
2022/03/09 01:05:26;;;;;;;3.47;1.87;;;;;;;-3.49;100.00;101872.88;5002155;28;20040;-81
2022/03/09 01:07:53;;;;;;;2.97;2.07;;;;;;;-3.52;100.00;101882.16;5004972;28;20056;-79
2022/03/09 01:10:19;;;;;;;3.33;1.87;;;;;;;-3.53;100.00;101877.78;5021362;28;20046;-81
2022/03/09 01:12:46;;;;;;;3.53;2.10;;;;;;;-3.50;100.00;101877.97;5017685;28;20044;-82
2022/03/09 01:15:13;;;;;;;4.00;2.13;;;;;;;-3.61;100.00;101864.47;5052899;28;20067;-82
2022/03/09 01:17:44;;;;;;;3.23;2.40;;;;;;;-3.67;100.00;101864.13;5018653;28;20052;-77
2022/03/09 01:20:14;;;;;;;3.27;2.10;;;;;;;-3.60;100.00;101866.25;5008376;28;20049;-77
2022/03/09 01:22:44;;;;;;;4.60;1.93;;;;;;;-3.45;100.00;101867.09;5024488;28;20099;-81
2022/03/09 01:25:11;;;;;;;4.30;2.40;;;;;;;-3.51;100.00;101863.28;5035439;28;20037;-82
2022/03/09 01:27:38;;;;;;;4.70;2.20;;;;;;;-3.55;100.00;101862.19;5045691;28;20037;-79
2022/03/09 01:30:06;;;;;;;3.60;2.00;;;;;;;-3.59;100.00;101860.28;5018483;28;20044;-82
2022/03/09 01:32:32;;;;;;;3.50;2.07;;;;;;;-3.54;100.00;101863.97;5034518;28;20040;-81
2022/03/09 01:34:59;;;;;;;3.30;2.07;;;;;;;-3.60;100.00;101855.91;5030342;28;20033;-80
2022/03/09 01:37:26;;;;;;;4.17;2.10;;;;;;;-3.69;100.00;101869.19;5026555;28;20042;-78
2022/03/09 01:39:53;;;;;;;3.00;1.83;;;;;;;-3.76;100.00;101864.50;5019238;28;20037;-80
2022/03/09 01:42:19;;;;;;;3.73;2.13;;;;;;;-3.81;100.00;101852.13;5033157;28;20049;-82
2022/03/09 01:44:51;;;;;;;4.03;1.87;;;;;;;-3.87;100.00;101852.66;5032641;28;20072;-80
2022/03/09 01:47:18;;;;;;;3.23;2.87;;;;;;;-3.90;100.00;101851.59;5027895;28;20530;-80
2022/03/09 01:49:46;;;;;;;4.23;1.97;;;;;;;-3.91;100.00;101850.72;5014389;28;20590;-80
2022/03/09 01:52:16;;;;;;;4.23;2.77;;;;;;;-3.97;100.00;101852.94;5021914;28;20082;-79
2022/03/09 01:54:44;;;;;;;3.30;2.30;;;;;;;-4.00;100.00;101845.03;5013807;28;20097;-81
2022/03/09 01:57:10;;;;;;;5.03;2.23;;;;;;;-4.03;100.00;101848.34;5028613;28;20114;-80
2022/03/09 01:59:40;;;;;;;2.97;2.30;;;;;;;-4.07;100.00;101856.69;5036718;28;20044;-81
2022/03/09 02:02:07;;;;;;;3.17;1.87;;;;;;;-4.06;100.00;101850.72;5023599;28;20045;-80
2022/03/09 02:04:34;;;;;;;3.47;2.13;;;;;;;-3.98;100.00;101848.56;5036620;28;20063;-82
2022/03/09 02:07:01;;;;;;;5.17;2.17;;;;;;;-3.79;100.00;101853.09;5012545;28;20771;-81
2022/03/09 02:09:44;;;;;;;7.60;2.80;;;;;;;-3.76;100.00;101853.28;5040727;28;20136;-81
2022/03/09 02:12:18;;;;;;;3.07;2.10;;;;;;;-3.82;100.00;101864.13;5028365;28;20502;-80
2022/03/09 02:14:49;;;;;;;4.45;2.35;;;;;;;-3.95;100.00;101856.50;5025507;28;20053;-80
2022/03/09 02:17:18;;;;;;;3.30;2.20;;;;;;;-3.98;100.00;101853.75;5018461;28;20504;-80
2022/03/09 02:19:47;;;;;;;2.87;1.80;;;;;;;-3.97;100.00;101858.09;5020357;28;20389;-81
2022/03/09 02:22:20;;;;;;;2.23;1.93;;;;;;;-3.94;100.00;101862.56;5006585;28;20041;-81
2022/03/09 02:24:48;;;;;;;4.87;1.90;;;;;;;-3.97;100.00;101853.81;5040890;28;20462;-80
2022/03/09 02:27:15;;;;;;;4.43;2.27;;;;;;;-4.02;100.00;101860.44;5024367;28;20496;-80
2022/03/09 02:29:44;;;;;;;2.90;2.10;;;;;;;-4.04;100.00;101858.53;5038772;28;20056;-80
2022/03/09 02:32:11;;;;;;;4.30;2.50;;;;;;;-4.18;100.00;101856.88;5004372;28;20052;-80
2022/03/09 02:34:38;;;;;;;5.43;2.77;;;;;;;-4.21;100.00;101864.41;4993790;28;20544;-80
2022/03/09 02:37:06;;;;;;;3.87;2.10;;;;;;;-4.25;100.00;101860.78;5014847;28;20419;-80
2022/03/09 02:39:33;;;;;;;4.67;2.13;;;;;;;-4.30;100.00;101857.91;5040323;28;20049;-81
2022/03/09 02:42:00;;;;;;;4.07;2.30;;;;;;;-4.27;100.00;101860.69;5039458;28;20435;-81
2022/03/09 02:44:27;;;;;;;3.87;2.10;;;;;;;-4.32;100.00;101862.09;5028954;28;20461;-82
2022/03/09 02:46:54;;;;;;;4.00;2.27;;;;;;;-4.35;100.00;101858.47;5028302;28;20312;-80
2022/03/09 02:49:21;;;;;;;3.70;2.20;;;;;;;-4.40;100.00;101854.72;5039733;28;20037;-81
2022/03/09 02:51:48;;;;;;;3.60;2.30;;;;;;;-4.43;100.00;101855.44;5019985;28;20136;-81
2022/03/09 02:54:16;;;;;;;3.50;2.30;;;;;;;-4.46;100.00;101862.09;5025762;28;20102;-81
2022/03/09 02:56:42;;;;;;;3.13;2.10;;;;;;;-4.49;100.00;101864.50;5033352;28;20094;-81
2022/03/09 02:59:09;;;;;;;4.03;2.30;;;;;;;-4.48;100.00;101854.25;5039781;28;20560;-81
2022/03/09 03:01:36;;;;;;;4.03;2.70;;;;;;;-4.49;100.00;101862.81;5016688;28;20091;-80
2022/03/09 03:04:02;;;;;;;3.70;1.90;;;;;;;-4.51;100.00;101858.38;5023130;28;20045;-81
2022/03/09 03:06:30;;;;;;;3.20;2.07;;;;;;;-4.53;100.00;101863.44;5033744;28;20530;-81
2022/03/09 03:08:57;;;;;;;3.67;2.43;;;;;;;-4.55;100.00;101859.84;5054041;28;20040;-81
2022/03/09 03:11:23;;;;;;;3.47;2.07;;;;;;;-4.49;100.00;101862.81;5018043;28;20036;-80
2022/03/09 03:13:50;;;;;;;3.77;2.20;;;;;;;-4.47;100.00;101852.56;5039373;28;20052;-81
2022/03/09 03:16:17;;;;;;;4.10;2.20;;;;;;;-4.50;100.00;101855.88;5036321;28;20052;-81
2022/03/09 03:18:47;;;;;;;3.90;2.30;;;;;;;-4.54;100.00;101859.06;5031985;28;20056;-79
2022/03/09 03:21:19;;;;;;;5.20;2.57;;;;;;;-4.59;100.00;101861.38;5027148;28;20060;-80
2022/03/09 03:23:47;;;;;;;3.77;2.20;;;;;;;-4.63;100.00;101856.81;5010757;28;20037;-80
2022/03/09 03:26:14;;;;;;;4.00;2.57;;;;;;;-4.66;100.00;101848.91;5038389;28;20053;-80
2022/03/09 03:28:41;;;;;;;5.80;2.60;;;;;;;-4.66;100.00;101854.06;5021176;28;20577;-80
2022/03/09 03:31:08;;;;;;;4.73;2.10;;;;;;;-4.60;100.00;101858.72;5051901;28;20067;-80
2022/03/09 03:33:35;;;;;;;2.97;2.20;;;;;;;-4.65;100.00;101860.13;5054684;28;20045;-80
2022/03/09 03:36:01;;;;;;;5.10;2.30;;;;;;;-4.56;100.00;101868.41;5020409;28;20519;-80
2022/03/09 03:38:29;;;;;;;4.73;2.40;;;;;;;-4.67;100.00;101864.28;5002971;28;20253;-82
2022/03/09 03:40:58;;;;;;;5.03;2.37;;;;;;;-4.76;100.00;101866.31;5015465;28;20091;-81
2022/03/09 03:43:25;;;;;;;4.20;2.40;;;;;;;-4.67;100.00;101862.59;5024064;28;20041;-80
2022/03/09 03:45:56;;;;;;;4.67;2.70;;;;;;;-4.61;100.00;101869.81;5025595;28;20038;-81
2022/03/09 03:48:24;;;;;;;3.70;2.10;;;;;;;-4.68;100.00;101867.69;5016554;28;20055;-79
2022/03/09 03:50:51;;;;;;;4.30;2.67;;;;;;;-4.77;100.00;101873.16;5022511;28;20043;-81
2022/03/09 03:53:21;;;;;;;4.83;2.77;;;;;;;-4.71;100.00;101880.38;5038767;28;20037;-81
2022/03/09 03:55:48;;;;;;;3.87;2.40;;;;;;;-4.79;100.00;101879.94;5040083;28;20484;-81
2022/03/09 03:58:14;;;;;;;4.50;2.60;;;;;;;-4.80;100.00;101880.69;5038621;28;20037;-79
2022/03/09 04:00:41;;;;;;;5.93;3.03;;;;;;;-4.83;100.00;101876.25;5036568;28;20044;-80
2022/03/09 04:03:09;;;;;;;4.77;2.20;;;;;;;-4.88;100.00;101871.59;5037433;28;20033;-80
2022/03/09 04:05:36;;;;;;;5.00;2.43;;;;;;;-4.98;100.00;101880.47;5036813;28;20045;-80
2022/03/09 04:08:03;;;;;;;3.50;2.60;;;;;;;-5.00;100.00;101881.19;5018182;28;20042;-80
2022/03/09 04:10:30;;;;;;;4.33;2.60;;;;;;;-4.93;100.00;101885.91;5002335;28;20045;-80
2022/03/09 04:13:00;;;;;;;4.83;2.93;;;;;;;-4.93;100.00;101883.34;5039590;28;20040;-80
2022/03/09 04:15:27;;;;;;;5.93;3.20;;;;;;;-4.95;100.00;101879.78;5034011;28;20049;-80
2022/03/09 04:17:54;;;;;;;3.20;2.70;;;;;;;-4.98;100.00;101879.56;5005165;28;20041;-80
2022/03/09 04:20:21;;;;;;;5.23;2.73;;;;;;;-5.00;100.00;101881.19;5032162;28;20037;-79
2022/03/09 04:22:47;;;;;;;5.77;3.20;;;;;;;-5.06;100.00;101883.38;5044533;28;20451;-80
2022/03/09 04:25:14;;;;;;;4.87;3.03;;;;;;;-5.09;100.00;101884.06;5029835;28;20072;-79
2022/03/09 04:27:41;;;;;;;6.00;2.60;;;;;;;-5.14;100.00;101875.16;5002043;28;20090;-81
2022/03/09 04:30:09;;;;;;;5.07;2.90;;;;;;;-5.16;100.00;101882.81;5001233;28;20045;-80
2022/03/09 04:32:36;;;;;;;5.27;2.97;;;;;;;-5.12;100.00;101886.47;4985297;28;20046;-80
2022/03/09 04:35:05;;;;;;;3.97;2.50;;;;;;;-5.20;100.00;101883.41;5035055;28;20618;-80
2022/03/09 04:37:35;;;;;;;4.17;2.63;;;;;;;-5.24;100.00;101880.53;5054499;28;20127;-80
2022/03/09 04:40:06;;;;;;;4.63;2.93;;;;;;;-5.28;100.00;101876.91;5038436;28;20040;-80
2022/03/09 04:42:33;;;;;;;5.97;2.90;;;;;;;-5.30;100.00;101880.16;5042826;28;20108;-80
2022/03/09 04:45:01;;;;;;;4.23;2.63;;;;;;;-5.28;100.00;101876.91;5037297;28;20037;-81
2022/03/09 04:47:27;;;;;;;4.33;2.83;;;;;;;-5.32;100.00;101885.22;5038325;28;20060;-81
2022/03/09 04:49:55;;;;;;;5.10;2.90;;;;;;;-5.38;100.00;101888.31;5020443;28;20049;-80
2022/03/09 04:52:21;;;;;;;6.43;3.30;;;;;;;-5.40;100.00;101889.88;5037073;28;20052;-80
2022/03/09 04:54:48;;;;;;;5.20;2.60;;;;;;;-5.36;100.00;101880.69;5017650;28;20083;-80
2022/03/09 04:57:15;;;;;;;6.03;2.93;;;;;;;-5.30;100.00;101883.63;5014175;28;20515;-81
2022/03/09 04:59:41;;;;;;;4.50;3.07;;;;;;;-5.33;100.00;101882.53;5029700;28;20092;-80
2022/03/09 05:02:09;;;;;;;4.53;2.63;;;;;;;-5.39;100.00;101878.78;5035444;28;20566;-80
2022/03/09 05:04:36;;;;;;;4.40;3.00;;;;;;;-5.31;100.00;101887.00;5018998;28;20059;-81
2022/03/09 05:07:04;;;;;;;6.47;2.97;;;;;;;-5.28;100.00;101879.47;5014642;28;20459;-80
2022/03/09 05:09:31;;;;;;;5.20;3.30;;;;;;;-5.29;100.00;101888.00;5031697;28;20866;-80
2022/03/09 05:12:01;;;;;;;6.27;2.87;;;;;;;-5.33;100.00;101883.44;5021760;28;20041;-80
2022/03/09 05:14:28;;;;;;;4.03;2.57;;;;;;;-5.41;100.00;101889.78;5034260;28;20519;-80
2022/03/09 05:16:55;;;;;;;5.60;3.10;;;;;;;-5.40;100.00;101886.41;5007109;28;20063;-80
2022/03/09 05:19:24;;;;;;;4.67;2.97;;;;;;;-5.43;100.00;101887.13;5015995;28;20049;-79
2022/03/09 05:21:51;;;;;;;5.33;2.97;;;;;;;-5.50;100.00;101881.47;5020158;28;20037;-80
2022/03/09 05:24:37;;;;;;;5.23;3.50;;;;;;;-5.53;100.00;101886.44;5016700;28;20140;-79
2022/03/09 05:27:07;;;;;;;6.53;2.70;;;;;;;-5.55;100.00;101893.16;5036715;28;20056;-79
2022/03/09 05:29:38;;;;;;;5.93;3.47;;;;;;;-5.52;100.00;101888.22;5005624;28;20049;-80
2022/03/09 05:32:05;;;;;;;6.27;3.37;;;;;;;-5.49;100.00;101899.59;5024868;28;20042;-80
2022/03/09 05:34:31;;;;;;;5.83;2.90;;;;;;;-5.60;100.00;101898.03;5002577;28;20037;-80
2022/03/09 05:36:58;;;;;;;4.70;2.80;;;;;;;-5.70;100.00;101904.28;5036567;28;20451;-81
2022/03/09 05:39:25;;;;;;;5.47;2.80;;;;;;;-5.71;100.00;101897.34;5033980;28;20052;-80
2022/03/09 05:41:51;;;;;;;4.40;2.63;;;;;;;-5.71;100.00;101902.50;5023363;28;20044;-80
2022/03/09 05:44:18;;;;;;;4.33;2.83;;;;;;;-5.73;100.00;101896.34;5031760;28;20095;-79
2022/03/09 05:46:45;;;;;;;4.27;2.63;;;;;;;-5.73;100.00;101905.75;5032828;28;20103;-80
2022/03/09 05:49:12;;;;;;;5.07;2.97;;;;;;;-5.73;100.00;101909.19;5032199;28;20041;-80
2022/03/09 05:51:38;;;;;;;3.73;2.33;;;;;;;-5.73;100.00;101903.16;5013175;28;20071;-80
2022/03/09 05:54:05;;;;;;;4.57;2.80;;;;;;;-5.71;100.00;101899.03;5028577;28;20320;-81
2022/03/09 05:56:31;;;;;;;4.40;2.63;;;;;;;-5.70;100.00;101905.97;5027200;28;20041;-81
2022/03/09 05:59:01;;;;;;;4.40;3.07;;;;;;;-5.70;100.00;101905.97;5017975;28;20061;-81
2022/03/09 06:01:28;;;;;;;3.07;2.30;;;;;;;-5.73;100.00;101909.19;5005481;28;20041;-81
2022/03/09 06:03:55;;;;;;;4.80;2.97;;;;;;;-5.73;100.00;101914.34;5034887;28;20072;-81
2022/03/09 06:06:22;;;;;;;4.53;2.60;;;;;;;-5.74;100.00;101917.72;5022175;28;20084;-81
2022/03/09 06:08:51;;;;;;;4.00;2.70;;;;;;;-5.75;100.00;101918.50;5030409;28;20059;-81
2022/03/09 06:11:19;;;;;;;4.83;3.10;;;;;;;-5.71;100.00;101914.47;5011248;28;20040;-81
2022/03/09 06:13:49;;;;;;;4.23;2.70;;;;;;;-5.68;100.00;101923.28;5028167;28;20037;-79
2022/03/09 06:16:17;;;;;;;3.80;2.60;;;;;;;-5.66;100.00;101929.41;5051032;28;20118;-79
2022/03/09 06:18:47;;;;;;;4.33;2.70;;;;;;;-5.64;100.00;101928.59;5035149;28;20037;-80
2022/03/09 06:21:14;;;;;;;3.77;2.80;;;;;;;-5.63;100.00;101926.16;5023509;28;20060;-81
2022/03/09 06:23:41;;;;;;;4.93;2.70;;;;;;;-5.58;100.00;101929.91;5027474;28;20037;-80
2022/03/09 06:26:08;;;;;;;4.53;2.67;;;;;;;-5.57;100.00;101931.69;5051241;28;20044;-81
2022/03/09 06:28:35;;;;;;;4.53;2.57;;;;;;;-5.56;100.00;101930.00;5017658;28;20416;-80
2022/03/09 06:31:05;;;;;;;3.40;2.87;;;;;;;-5.51;100.00;101929.50;5033852;28;20041;-80
2022/03/09 06:33:32;;;;;;;5.17;2.70;;;;;;;-5.45;100.00;101935.06;5042579;28;20067;-80
2022/03/09 06:35:59;;;;;;;4.33;3.10;;;;;;;-5.46;100.00;101932.41;5018437;28;20045;-80
2022/03/09 06:38:26;;;;;;;5.43;2.77;;;;;;;-5.45;100.00;101935.06;5022633;28;20037;-79
2022/03/09 06:40:52;;;;;;;3.93;2.37;;;;;;;-5.40;100.00;101941.38;5033878;28;20048;-80
2022/03/09 06:43:19;;;;;;;4.57;2.73;;;;;;;-5.35;100.00;101940.81;5049221;28;20037;-81
2022/03/09 06:45:46;;;;;;;4.63;2.33;;;;;;;-5.34;100.00;101935.75;5031637;28;20037;-78
2022/03/09 06:48:12;;;;;;;4.47;2.80;;;;;;;-5.27;100.00;101937.03;5017633;28;20041;-79
2022/03/09 06:50:39;;;;;;;5.03;3.33;;;;;;;-5.23;100.00;101941.56;5013832;28;20050;-79
2022/03/09 06:53:06;;;;;;;6.30;2.70;;;;;;;-5.20;100.00;101945.25;5006116;28;20095;-80
2022/03/09 06:55:33;;;;;;;3.87;2.80;;;;;;;-5.17;100.00;101947.13;5041264;28;20041;-79
2022/03/09 06:57:59;;;;;;;4.00;2.70;;;;;;;-5.14;100.00;101949.88;5018823;28;20087;-81
2022/03/09 07:00:26;;;;;;;4.00;2.47;;;;;;;-5.11;100.00;101948.41;5024384;28;20795;-80
2022/03/09 07:02:53;;;;;;;4.17;2.60;;;;;;;-5.07;100.00;101943.44;5021371;28;20065;-80
2022/03/09 07:05:23;;;;;;;4.47;2.77;;;;;;;-5.03;100.00;101943.75;5035518;28;20496;-80
2022/03/09 07:07:50;;;;;;;4.30;2.90;;;;;;;-5.00;100.00;101950.75;5053850;28;20037;-80
2022/03/09 07:10:17;;;;;;;5.83;3.10;;;;;;;-4.98;100.00;101942.31;5033822;28;20041;-80
2022/03/09 07:12:45;;;;;;;5.10;3.63;;;;;;;-4.91;100.00;101947.06;5047128;28;20037;-81
2022/03/09 07:15:13;;;;;;;6.20;3.70;;;;;;;-4.84;100.00;101953.50;5029648;28;20052;-81
2022/03/09 07:17:40;;;;;;;4.60;2.97;;;;;;;-4.74;100.00;101954.94;5055665;28;20064;-79
2022/03/09 07:20:07;;;;;;;6.73;3.53;;;;;;;-4.64;100.00;101949.56;5010926;28;20540;-81
2022/03/09 07:22:41;;;;;;;5.83;3.87;;;;;;;-4.56;100.00;101962.13;5025584;28;20045;-80
2022/03/09 07:25:09;;;;;;;5.37;3.20;;;;;;;-4.47;100.00;101961.78;5036647;28;21971;-81
2022/03/09 07:27:37;;;;;;;7.80;4.10;;;;;;;-4.32;100.00;101964.41;5038671;28;20091;-81
2022/03/09 07:30:04;;;;;;;7.27;4.20;;;;;;;-4.13;100.00;101961.25;5045180;28;20075;-81
2022/03/09 07:32:35;;;;;;;7.20;4.53;;;;;;;-3.99;100.00;101961.25;5028573;28;20049;-81
2022/03/09 07:35:21;;;;;;;6.30;4.07;;;;;;;-3.83;100.00;101959.59;5033176;28;20094;-81
2022/03/09 07:37:51;;;;;;;8.00;4.90;;;;;;;-3.71;100.00;101963.75;5050747;28;20055;-80
2022/03/09 07:40:18;;;;;;;9.63;5.63;;;;;;;-3.60;100.00;101964.38;5041554;28;20061;-80
2022/03/09 07:42:44;;;;;;;8.67;4.97;;;;;;;-3.46;100.00;101966.03;5041907;28;20044;-80
2022/03/09 07:45:11;;;;;;;7.10;4.97;;;;;;;-3.30;100.00;101954.00;5043516;28;20399;-81
2022/03/09 07:47:40;;;;;;;5.57;4.10;;;;;;;-3.15;100.00;101962.63;5044166;28;20065;-81
2022/03/09 07:50:07;;;;;;;6.27;4.13;;;;;;;-3.02;100.00;101959.91;5042409;28;20087;-81
2022/03/09 07:52:34;;;;;;;7.37;4.37;;;;;;;-2.88;100.00;101961.53;5023430;28;20071;-81
2022/03/09 07:55:05;;;;;;;7.23;4.07;;;;;;;-2.70;100.00;101958.16;5007656;28;20053;-82
2022/03/09 07:57:37;;;;;;;5.83;3.77;;;;;;;-2.56;100.00;101949.44;5021883;28;20403;-82
2022/03/09 08:00:09;;;;;;;7.37;4.73;;;;;;;-2.39;100.00;101959.00;5010680;28;20050;-82
2022/03/09 08:02:35;;;;;;;7.90;4.90;;;;;;;-2.30;100.00;101954.28;5028256;28;20045;-82
2022/03/09 08:05:03;;;;;;;7.80;4.77;;;;;;;-2.19;100.00;101962.59;5029820;28;20099;-82
2022/03/09 08:07:30;;;;;;;9.17;5.17;;;;;;;-2.09;100.00;101953.66;5040298;28;20077;-81
2022/03/09 08:09:57;;;;;;;8.00;5.53;;;;;;;-1.99;100.00;101948.13;5024674;28;20052;-81
2022/03/09 08:12:27;;;;;;;12.23;6.63;;;;;;;-1.86;100.00;101962.56;5028076;28;20041;-81
2022/03/09 08:14:54;;;;;;;12.30;6.63;;;;;;;-1.75;100.00;101959.72;5004644;28;20038;-81
2022/03/09 08:17:22;;;;;;;9.73;5.80;;;;;;;-1.59;100.00;101957.91;5018884;28;20037;-81
2022/03/09 08:19:52;;;;;;;8.43;5.13;;;;;;;-1.33;100.00;101957.47;5018951;28;20595;-81
2022/03/09 08:22:20;;;;;;;9.03;6.20;;;;;;;-1.17;100.00;101956.50;5015488;28;20163;-83
2022/03/09 08:24:47;;;;;;;8.87;6.37;;;;;;;-1.00;100.00;101959.88;5025989;28;20049;-82
2022/03/09 08:27:16;;;;;;;8.10;5.70;;;;;;;-0.98;100.00;101955.66;5034366;28;20079;-82
2022/03/09 08:29:45;;;;;;;7.90;5.70;;;;;;;-0.91;100.00;101963.78;5028521;28;20080;-81
2022/03/09 08:32:16;;;;;;;7.70;6.07;;;;;;;-0.83;100.00;101948.59;5058261;28;20087;-81
2022/03/09 08:34:43;;;;;;;9.63;6.13;;;;;;;-0.63;100.00;101963.34;5030397;28;20045;-81
2022/03/09 08:37:09;;;;;;;9.10;4.60;;;;;;;-0.53;100.00;101953.38;5008861;28;20115;-80
2022/03/09 08:39:36;;;;;;;11.13;5.03;;;;;;;-0.43;100.00;101953.84;5035090;28;20037;-82
2022/03/09 08:42:06;;;;;;;7.70;4.73;;;;;;;-0.24;100.00;101949.50;5008290;28;20448;-80
2022/03/09 08:44:41;;;;;;;6.20;4.43;;;;;;;-0.05;100.00;101939.09;5022855;28;20049;-81
2022/03/09 08:47:08;;;;;;;7.53;4.63;;;;;;;0.11;100.00;101953.63;5044243;28;20103;-82
2022/03/09 08:49:39;;;;;;;8.77;5.03;;;;;;;0.26;100.00;101941.28;5035299;28;20049;-81
2022/03/09 08:52:10;;;;;;;5.53;3.80;;;;;;;0.40;100.00;101942.72;5047011;28;20496;-81
2022/03/09 08:54:40;;;;;;;;;;;;;;;0.51;100.00;101949.28;5037191;28;20588;-80
2022/03/09 08:57:08;;;;;;;5.93;3.87;;;;;;;0.68;100.00;101943.88;5021455;28;19921;-80
2022/03/09 08:59:44;;;;;;;6.43;4.17;;;;;;;0.92;100.00;101949.13;5049456;28;20605;-81
2022/03/09 09:02:12;;;;;;;6.53;4.50;;;;;;;1.10;100.00;101940.34;5020620;28;20080;-81
2022/03/09 09:04:39;;;;;;;6.83;4.47;;;;;;;1.43;100.00;101945.06;5035604;28;20053;-83
2022/03/09 09:07:08;;;;;;;6.93;4.30;;;;;;;1.60;100.00;101949.16;4994700;28;20057;-80
2022/03/09 09:09:37;;;;;;;9.17;5.70;;;;;;;1.83;100.00;101949.97;5021780;28;20041;-83
2022/03/09 09:12:04;;;;;;;6.63;4.73;;;;;;;2.10;98.29;101946.56;5016408;28;20041;-80
2022/03/09 09:14:31;;;;;;;12.13;4.87;;;;;;;2.44;97.14;101951.22;5017568;28;20049;-81
2022/03/09 09:17:00;;;;;;;6.00;4.23;;;;;;;2.89;93.69;101948.31;5011042;28;20046;-81
2022/03/09 09:19:49;;;;;;;8.30;4.00;;;;;;;3.55;84.03;101949.44;5021317;28;20053;-82
2022/03/09 09:22:16;;;;;;;6.37;3.60;;;;;;;3.97;77.50;101942.75;5019912;28;20056;-83
2022/03/09 09:24:46;;;;;;;6.07;4.23;;;;;;;4.36;78.15;101949.00;5023152;28;20058;-82
2022/03/09 09:27:13;;;;;;;5.57;3.60;;;;;;;4.80;72.95;101952.75;5025082;28;20041;-82
2022/03/09 09:30:03;;;;;;;7.70;3.87;;;;;;;5.23;75.07;101942.38;5038224;28;20037;-82
2022/03/09 09:32:31;;;;;;;6.50;3.90;;;;;;;5.52;72.42;101950.81;5023366;28;20135;-82
2022/03/09 09:34:57;;;;;;;5.00;3.33;;;;;;;5.80;66.03;101942.69;5017509;28;20046;-80
2022/03/09 09:37:26;;;;;;;6.07;3.70;;;;;;;6.20;63.63;101943.44;5035385;28;20132;-83
2022/03/09 09:39:53;;;;;;;4.80;3.40;;;;;;;6.53;57.41;101935.25;5022101;28;20037;-83
2022/03/09 09:42:30;;;;;;;4.60;3.00;;;;;;;6.85;59.60;101941.03;5021146;28;20049;-83
2022/03/09 09:45:19;;;;;;;6.47;3.50;;;;;;;7.09;55.88;101932.63;5000614;28;20057;-82
2022/03/09 09:47:48;;;;;;;5.50;3.53;;;;;;;7.32;56.89;101938.22;5007285;28;20112;-84
2022/03/09 09:50:18;;;;;;;5.83;3.53;;;;;;;7.66;56.59;101936.88;5015516;28;20451;-84
2022/03/09 09:52:50;;;;;;;6.00;3.17;;;;;;;7.93;55.14;101924.91;5026445;28;20142;-84
2022/03/09 09:55:17;;;;;;;5.97;3.90;;;;;;;8.14;53.03;101931.25;5034457;28;20492;-83
2022/03/09 09:57:46;;;;;;;5.13;3.10;;;;;;;8.51;53.27;101938.66;5028536;28;20057;-83
2022/03/09 10:00:13;;;;;;;25.77;5.23;;;;;;;8.71;53.03;101922.13;5029751;28;20033;-85
2022/03/09 10:02:41;;;;;;;5.43;3.40;;;;;;;9.02;51.60;101925.84;5003988;28;20130;-82
2022/03/09 10:05:14;;;;;;;5.00;3.33;;;;;;;9.18;51.65;101921.56;5012084;28;20360;-83
2022/03/09 10:08:06;;;;;;;6.67;3.83;;;;;;;9.19;48.50;101923.31;5012956;23;20049;-78
2022/03/09 10:10:36;;;;;;;5.40;3.40;;;;;;;9.37;48.34;101921.66;5015080;28;20042;-78
2022/03/09 10:13:20;;;;;;;5.97;4.07;;;;;;;9.53;50.05;101923.47;4996391;28;20399;-78
2022/03/09 10:15:48;;;;;;;;;;;;;;;9.62;48.64;101928.78;5017890;28;20492;-78
2022/03/09 10:18:20;;;;;;;6.00;3.55;;;;;;;9.71;46.33;101927.94;5019516;28;19921;-77
2022/03/09 10:20:48;;;;;;;5.60;3.63;;;;;;;9.59;46.70;101926.16;4981846;28;20049;-77
2022/03/09 10:23:17;;;;;;;5.60;4.03;;;;;;;9.86;46.84;101923.59;5037881;28;20046;-78
2022/03/09 10:25:44;;;;;;;5.65;3.85;;;;;;;9.99;47.60;101932.41;5017107;28;20450;-78
2022/03/09 10:28:11;;;;;;;5.70;3.38;;;;;;;10.14;46.25;101936.84;5004362;28;20053;-78
2022/03/09 10:30:40;;;;;;;5.57;3.33;;;;;;;10.20;44.81;101938.63;5004828;28;20049;-78
2022/03/09 10:33:09;;;;;;;6.40;4.07;;;;;;;10.21;44.21;101937.75;5001893;28;20103;-77
2022/03/09 10:35:36;;;;;;;6.22;3.35;;;;;;;10.34;46.32;101932.53;4988978;28;20049;-76
2022/03/09 10:38:23;;;;;;;4.88;3.20;;;;;;;10.58;44.73;101930.75;5034716;28;20041;-76
2022/03/09 10:40:54;;;;;;;5.43;3.38;;;;;;;10.71;43.68;101938.66;4997252;28;20042;-77
2022/03/09 10:43:21;;;;;;;4.43;2.88;;;;;;;10.81;44.68;101925.44;4994006;28;20053;-77
2022/03/09 10:46:09;;;;;;;4.25;3.10;;;;;;;10.86;41.76;101926.34;5000898;28;20247;-77
2022/03/09 10:49:00;;;;;;;6.60;3.63;;;;;;;11.02;44.08;101927.19;5020442;28;20042;-76
2022/03/09 10:51:46;;;;;;;5.18;3.85;;;;;;;10.82;42.63;101925.44;5013356;28;20049;-77
2022/03/09 10:54:25;;;;;;;6.00;3.60;;;;;;;10.71;41.72;101927.22;5001378;28;20053;-77
2022/03/09 10:57:07;;;;;;;5.38;4.15;;;;;;;10.56;43.00;101919.28;5018988;28;20110;-77
2022/03/09 10:59:49;;;;;;;6.43;4.22;;;;;;;10.73;44.49;101922.81;5025320;28;20076;-78
2022/03/09 11:02:19;;;;;;;5.13;3.70;;;;;;;10.91;43.79;101927.19;5021537;28;20064;-77
2022/03/09 11:05:08;;;;;;;5.45;3.60;;;;;;;11.06;41.82;101934.22;4996453;28;20042;-77
2022/03/09 11:07:35;;;;;;;7.20;4.00;;;;;;;11.18;43.02;101921.84;4996703;28;20041;-77
2022/03/09 11:10:04;;;;;;;6.00;3.65;;;;;;;10.64;40.75;101926.34;5021126;28;20037;-77
2022/03/09 11:12:31;;;;;;;6.18;4.20;;;;;;;11.10;41.73;101923.66;4998719;28;20045;-78
2022/03/09 11:15:05;;;;;;;5.07;4.57;;;;;;;11.24;41.98;101926.22;5014307;28;20053;-77
2022/03/09 11:17:33;;;;;;;9.95;8.90;;;;;;;11.43;41.36;101916.47;4966837;28;20046;-77
2022/03/09 11:20:00;;;;;;;4.57;3.67;;;;;;;11.36;40.73;101918.28;4998034;28;20065;-77
2022/03/09 11:22:26;;;;;;;4.95;3.83;;;;;;;11.13;39.21;101923.63;5013127;28;20042;-77
2022/03/09 11:24:53;;;;;;;6.50;5.68;;;;;;;11.24;40.08;101916.53;4998329;28;20045;-77
2022/03/09 11:27:21;;;;;;;5.55;4.78;;;;;;;11.41;40.62;101918.22;5029595;28;21762;-77